• Join FlightAware (Why Join?)
  • Login
  • US Flag 
07:18PM EDT


 

Airport Tracker/Info


-or-


 

Live Flight TrackerFlight Track Log ✈ WBR2633 ✈ 09-May-2013 ✈ KBRL - KSTL

Flight Track Log - Related Links

Times and Time Zones

All times are in EDT time to prevent confusion due to time zone crossing. See the WBR2633 flight status page for this flight to view local times or setup timezone preferences in your user account.

Time Position Orientation Groundspeed Altitude Reporting Facility
EDT Latitude Longitude Course Direction KTS MPH feet Rate Location/Type
11:19AM 40.7400 -91.0892 164° South 132 152 2,400  Level Kansas City Center
11:20AM 40.5925 -91.0527 164° South  Level Estimated
11:20AM 40.7064 -91.0875 178° South 117 135 3,100  Level Chicago Center
11:21AM 40.5544 -91.0382 164° South  Level Estimated
11:21AM 40.6767 -91.0903 184° South 112 129 3,700  Level Chicago Center
11:22AM 40.5163 -91.0237 164° South  Level Estimated
11:22AM 40.6444 -91.0775 163° South 118 136 4,200  Level Chicago Center
11:23AM 40.4781 -91.0092 164° South  Level Estimated
11:23AM 40.6103 -91.0633 163° South 123 142 4,800  Level Chicago Center
11:24AM 40.4400 -90.9947 164° South  Level Estimated
11:24AM 40.5775 -91.0508 164° South 125 144 5,300  Level Chicago Center
11:25AM 40.5369 -91.0350 163° South 126 145 6,000 600 Climbing Chicago Center
11:26AM 40.5056 -91.0203 160° South 122 140 6,600 480 Climbing Chicago Center
11:27AM 40.4717 -91.0097 167° South 123 142 7,000 240 Climbing Chicago Center
11:28AM 40.4353 -90.9975 166° South 129 148 7,100  Climbing Chicago Center
11:29AM 40.4003 -90.9822 162° South 132 152 7,100 -60 Level Chicago Center
11:30AM 40.3661 -90.9683 163° South 130 150 7,000 -60 Descending Chicago Center
11:31AM 40.3300 -90.9547 164° South 133 153 7,000  Level Chicago Center
11:32AM 40.2869 -90.9381 164° South 134 154 7,100  Climbing Chicago Center
11:33AM 40.2517 -90.9239 163° South 135 155 7,100  Level Chicago Center
11:34AM 40.2150 -90.9103 164° South 137 158 7,100 -60 Level Kansas City Center
11:35AM 40.1772 -90.8961 164° South 141 162 7,000 -60 Descending Kansas City Center
11:36AM 40.1350 -90.8789 163° South 135 155 7,000  Level Kansas City Center
11:37AM 40.0969 -90.8650 164° South 138 159 7,000  Level Kansas City Center
11:38AM 40.0625 -90.8533 165° South 132 152 7,000  Level Kansas City Center
11:39AM 40.0247 -90.8383 163° South 137 158 7,000  Level Kansas City Center
11:41AM 39.9897 -90.8244 163° South 135 155 7,000  Level Kansas City Center
11:42AM 39.9511 -90.8100 164° South 140 161 7,000  Level Kansas City Center
11:43AM 39.9047 -90.7947 166° South 144 166 7,000  Level Kansas City Center
11:44AM 39.8644 -90.7789 163° South 149 171 7,100  Climbing Kansas City Center
11:45AM 39.8242 -90.7658 166° South 150 173 7,100 -60 Level Kansas City Center
11:46AM 39.7906 -90.7483 158° South 136 157 7,000 -60 Descending Kansas City Center
11:47AM 39.7589 -90.7392 167° South 122 140 7,000  Level Kansas City Center
11:48AM 39.7231 -90.7239 162° South 125 144 7,000  Level Kansas City Center
11:49AM 39.6900 -90.7092 161° South 126 145 7,000 -60 Level Kansas City Center
11:50AM 39.6572 -90.7031 172° South 123 142 6,900  Descending Kansas City Center
11:51AM 39.6425 -90.7500 248° West 116 133 7,000  Climbing Kansas City Center
11:52AM 39.6389 -90.7897 263° West 111 128 7,000  Level Kansas City Center
11:53AM 39.6139 -90.8142 217° Southwest 114 131 7,000  Level Kansas City Center
11:54AM 39.5850 -90.8236 194° South 108 124 7,000  Level Kansas City Center
11:55AM 39.5542 -90.8150 168° South 122 140 7,000  Level Kansas City Center
11:56AM 39.5239 -90.7994 158° South 119 137 7,100  Climbing Kansas City Center
11:57AM 39.4869 -90.7764 154° Southeast 122 140 7,000 -60 Descending Kansas City Center
11:58AM 39.4564 -90.7589 156° South 122 140 7,000  Level Kansas City Center
11:59AM 39.4258 -90.7414 156° South 120 138 7,000  Level Kansas City Center
12:00PM 39.3958 -90.7236 155° Southeast 119 137 7,000  Level Kansas City Center
12:01PM 39.3669 -90.7006 148° Southeast 122 140 7,000  Level Kansas City Center
12:02PM 39.3397 -90.6700 139° Southeast 127 146 7,000  Level Kansas City Center
12:03PM 39.3056 -90.6408 147° Southeast 125 144 7,000 -300 Level Kansas City Center
12:04PM 39.2739 -90.6144 147° Southeast 131 151 6,400 -480 Descending Kansas City Center
12:05PM 39.2414 -90.5817 142° Southeast 144 166 6,100 -300 Descending Kansas City Center
12:06PM 39.2117 -90.5500 140° Southeast 141 162 5,900 -420 Descending Kansas City Center
12:07PM 39.1808 -90.5144 138° Southeast 146 168 5,300 -600 Descending Kansas City Center
12:08PM 39.1508 -90.4806 139° Southeast 146 168 4,700 -660 Descending Kansas City Center
12:09PM 39.1117 -90.4439 144° Southeast 145 167 4,000 -600 Descending Kansas City Center
12:10PM 39.0794 -90.4133 144° Southeast 145 167 3,500 -480 Descending Kansas City Center
12:12PM 39.0467 -90.3836 145° Southeast 145 167 3,100 -240 Descending Kansas City Center
12:13PM 39.0158 -90.3592 148° Southeast 139 160 3,100 -60 Level Kansas City Center
12:14PM 38.9875 -90.3339 145° Southeast 131 151 3,000 -180 Descending Kansas City Center
12:15PM 38.9592 -90.3056 142° Southeast 128 147 2,800 -300 Descending Kansas City Center
12:16PM 38.9272 -90.2731 142° Southeast 136 157 2,500 -120 Descending Kansas City Center
12:17PM 38.8861 -90.2681 175° South 130 150 2,600 -60 Climbing Kansas City Center
12:18PM 38.8500 -90.2678 180° South 129 148 2,400 -240 Descending Kansas City Center
12:19PM 38.8156 -90.2744 189° South 127 146 2,200 -360 Descending Kansas City Center
12:20PM 38.7828 -90.2994 211° Southwest 133 153 1,700 -600 Descending Kansas City Center
12:21PM 38.7628 -90.3411 238° Southwest 135 155 1,000 -540 Descending Kansas City Center
12:22PM 38.7456 -90.3883 245° Southwest 132 152 700 -300 Descending Kansas City Center